createdAt,value
2023-07-02T00:02:04.257Z,58.31
2023-07-02T00:04:30.266Z,58.05
2023-07-02T00:06:59.576Z,58.54
2023-07-02T00:11:19.661Z,58.32
2023-07-02T00:13:45.528Z,58.45
2023-07-02T00:18:17.285Z,58.42
2023-07-02T00:20:44.105Z,58.42
2023-07-02T00:25:11.089Z,58.30
2023-07-02T00:27:38.674Z,58.57
2023-07-02T00:30:05.605Z,58.61
2023-07-02T00:34:33.552Z,58.68
2023-07-02T00:37:00.223Z,58.36
2023-07-02T00:39:26.738Z,58.57
2023-07-02T00:41:52.674Z,58.57
2023-07-02T00:44:18.758Z,58.85
2023-07-02T00:46:44.710Z,58.63
2023-07-02T00:49:11.223Z,58.82
2023-07-02T00:51:37.911Z,58.57
2023-07-02T00:54:08.332Z,58.77
2023-07-02T00:58:40.655Z,58.63
2023-07-02T01:01:08.997Z,58.94
2023-07-02T01:03:38.687Z,59.04
2023-07-02T01:06:04.758Z,58.85
2023-07-02T01:08:30.700Z,58.87
2023-07-02T01:10:58.376Z,58.75
2023-07-02T01:13:25.113Z,58.97
2023-07-02T01:17:49.061Z,58.78
2023-07-02T01:20:15.377Z,58.82
2023-07-02T01:22:41.440Z,58.68
2023-07-02T01:25:09.742Z,58.68
2023-07-02T01:27:36.576Z,58.62
2023-07-02T01:30:07.552Z,59.25
2023-07-02T01:32:33.488Z,59.02
2023-07-02T01:36:50.280Z,58.78
2023-07-02T01:39:16.536Z,59.08
2023-07-02T01:44:24.500Z,58.79
2023-07-02T01:46:50.564Z,58.96
2023-07-02T01:49:18.245Z,58.84
2023-07-02T01:54:36.874Z,59.09
2023-07-02T01:57:03.488Z,59.00
2023-07-02T01:59:29.487Z,59.04
2023-07-02T02:01:55.496Z,59.19
2023-07-02T02:04:21.604Z,59.03
2023-07-02T02:06:47.554Z,59.35
2023-07-02T02:09:13.468Z,59.25
2023-07-02T02:11:41.615Z,59.03
2023-07-02T02:16:16.198Z,59.14
2023-07-02T02:20:46.361Z,59.13
2023-07-02T02:23:12.973Z,59.05
2023-07-02T02:25:38.911Z,59.19
2023-07-02T02:28:04.972Z,59.26
2023-07-02T02:30:31.680Z,59.21
2023-07-02T02:32:57.564Z,59.50
2023-07-02T02:35:23.512Z,59.36
2023-07-02T02:37:49.384Z,59.54
2023-07-02T02:40:15.813Z,59.53
2023-07-02T02:42:41.701Z,59.35
2023-07-02T02:45:08.575Z,59.04
2023-07-02T02:47:34.537Z,59.40
2023-07-02T02:50:00.585Z,59.39
2023-07-02T02:54:32.453Z,59.08
2023-07-02T02:56:58.340Z,59.30
2023-07-02T02:59:25.297Z,59.28
2023-07-02T03:04:27.337Z,59.67
2023-07-02T03:06:53.518Z,59.44
2023-07-02T03:09:20.443Z,59.28
2023-07-02T03:11:48.188Z,59.74
2023-07-02T03:14:15.233Z,59.45
2023-07-02T03:16:42.706Z,59.60
2023-07-02T03:19:09.066Z,59.64
2023-07-02T03:21:35.229Z,59.38
2023-07-02T03:24:01.208Z,59.60
2023-07-02T03:26:27.117Z,59.56
2023-07-02T03:28:53.403Z,59.76
2023-07-02T03:31:20.617Z,59.21
2023-07-02T03:33:46.698Z,59.29
2023-07-02T03:36:12.689Z,59.69
2023-07-02T03:38:39.571Z,59.41
2023-07-02T03:41:06.029Z,59.48
2023-07-02T03:43:32.270Z,59.70
2023-07-02T03:45:59.099Z,59.74
2023-07-02T03:48:25.016Z,59.44
2023-07-02T03:50:51.135Z,59.42
2023-07-02T03:53:17.002Z,59.92
2023-07-02T03:55:42.899Z,59.89
2023-07-02T03:58:11.395Z,59.66
2023-07-02T04:00:37.353Z,59.95
2023-07-02T04:03:04.590Z,59.52
2023-07-02T04:05:31.433Z,59.62
2023-07-02T04:07:59.063Z,59.42
2023-07-02T04:14:32.249Z,59.16
2023-07-02T04:16:58.208Z,59.51
2023-07-02T04:21:31.166Z,59.55
2023-07-02T04:23:57.999Z,59.80
2023-07-02T04:26:54.607Z,59.87
2023-07-02T04:31:43.456Z,59.59
2023-07-02T04:34:09.344Z,59.83
2023-07-02T04:36:35.397Z,59.71
2023-07-02T04:41:10.995Z,59.86
2023-07-02T04:43:36.948Z,59.74
2023-07-02T04:47:43.396Z,59.55
2023-07-02T04:52:56.005Z,59.79
2023-07-02T04:55:22.200Z,59.86
2023-07-02T04:57:48.065Z,59.57
2023-07-02T05:01:54.456Z,60.01
2023-07-02T05:04:20.498Z,59.82
2023-07-02T05:06:47.993Z,59.72
2023-07-02T05:09:13.907Z,60.14
2023-07-02T05:11:39.774Z,60.16
2023-07-02T05:14:06.049Z,60.00
2023-07-02T05:16:32.106Z,60.35
2023-07-02T05:18:58.031Z,60.40
2023-07-02T05:21:23.911Z,59.83
2023-07-02T05:23:49.821Z,60.01
2023-07-02T05:26:15.733Z,59.74
2023-07-02T05:28:42.296Z,59.82
2023-07-02T05:31:08.297Z,59.89
2023-07-02T05:33:34.186Z,60.02
2023-07-02T05:36:00.048Z,59.91
2023-07-02T05:38:26.523Z,60.14
2023-07-02T05:40:52.373Z,59.90
2023-07-02T05:43:18.504Z,60.07
2023-07-02T05:45:44.453Z,60.17
2023-07-02T05:48:10.611Z,60.42
2023-07-02T05:50:36.834Z,60.21
2023-07-02T05:53:02.783Z,60.19
2023-07-02T05:57:25.150Z,60.03
2023-07-02T05:59:51.244Z,60.31
2023-07-02T06:02:17.486Z,60.15
2023-07-02T06:08:33.547Z,59.74
2023-07-02T06:14:24.152Z,60.11
2023-07-02T06:20:34.679Z,60.22
2023-07-02T06:23:00.681Z,59.92
2023-07-02T06:30:50.612Z,59.91
2023-07-02T06:33:17.563Z,59.99
2023-07-02T06:37:53.904Z,60.21
2023-07-02T06:40:23.768Z,60.23
2023-07-02T06:42:50.152Z,60.15
2023-07-02T06:45:16.370Z,60.07
2023-07-02T06:47:43.383Z,60.11
2023-07-02T06:50:09.963Z,60.13
2023-07-02T06:55:16.444Z,60.30
2023-07-02T07:01:58.659Z,60.28
2023-07-02T07:04:24.667Z,60.41
2023-07-02T07:06:50.886Z,59.96
2023-07-02T07:09:18.731Z,60.43
2023-07-02T07:11:45.371Z,59.92
2023-07-02T07:14:11.199Z,59.87
2023-07-02T07:16:37.452Z,60.04
2023-07-02T07:19:03.887Z,59.83
2023-07-02T07:21:30.483Z,59.71
2023-07-02T07:23:56.661Z,59.93
2023-07-02T07:26:23.546Z,59.78
2023-07-02T07:28:49.959Z,59.82
2023-07-02T07:31:16.057Z,59.63
2023-07-02T07:33:42.019Z,60.03
2023-07-02T07:36:08.041Z,60.03
2023-07-02T07:40:30.138Z,59.54
2023-07-02T07:42:56.739Z,59.23
2023-07-02T07:45:22.738Z,59.83
2023-07-02T07:47:48.961Z,59.36
2023-07-02T07:50:14.928Z,59.61
2023-07-02T07:52:41.813Z,59.60
2023-07-02T07:55:08.030Z,59.31
2023-07-02T07:57:35.588Z,59.08
2023-07-02T08:00:01.929Z,59.23
2023-07-02T08:02:27.915Z,59.19
2023-07-02T08:08:03.546Z,58.77
2023-07-02T08:10:29.443Z,58.78
2023-07-02T08:12:55.370Z,58.69
2023-07-02T08:15:21.825Z,58.66
2023-07-02T08:17:48.065Z,58.55
2023-07-02T08:25:35.932Z,58.14
2023-07-02T08:28:02.781Z,58.19
2023-07-02T08:32:29.898Z,58.05
2023-07-02T08:34:56.883Z,57.93
2023-07-02T08:40:05.341Z,57.91
2023-07-02T08:45:15.559Z,57.71
2023-07-02T08:47:41.808Z,57.75
2023-07-02T08:50:08.292Z,57.86
2023-07-02T08:52:34.276Z,57.64
2023-07-02T08:55:00.169Z,57.26
2023-07-02T08:57:26.351Z,57.39
2023-07-02T08:59:52.219Z,57.53
2023-07-02T09:02:19.003Z,57.58
2023-07-02T09:04:46.250Z,57.17
2023-07-02T09:07:12.127Z,57.22
2023-07-02T09:09:51.876Z,56.94
2023-07-02T09:12:51.063Z,56.91
2023-07-02T09:15:17.140Z,56.92
2023-07-02T09:17:43.431Z,56.96
2023-07-02T09:20:10.508Z,56.91
2023-07-02T09:25:17.377Z,56.57
2023-07-02T09:27:43.687Z,56.43
2023-07-02T09:30:16.020Z,56.85
2023-07-02T09:33:09.600Z,56.45
2023-07-02T09:35:35.694Z,56.69
2023-07-02T09:38:01.693Z,56.83
2023-07-02T09:40:29.478Z,56.57
2023-07-02T09:42:56.955Z,56.60
2023-07-02T09:45:24.499Z,56.92
2023-07-02T09:47:56.568Z,56.80
2023-07-02T09:54:48.465Z,56.54
2023-07-02T09:57:14.729Z,56.62
2023-07-02T09:59:41.047Z,56.55
2023-07-02T10:02:10.132Z,56.36
2023-07-02T10:07:53.449Z,56.54
2023-07-02T10:11:13.744Z,56.48
2023-07-02T10:15:40.999Z,56.39
2023-07-02T10:19:56.732Z,56.65
2023-07-02T10:22:22.882Z,56.34
2023-07-02T10:27:21.152Z,56.38
2023-07-02T10:35:02.943Z,56.33
2023-07-02T10:38:06.877Z,56.21
2023-07-02T10:44:10.518Z,56.58
2023-07-02T10:49:18.873Z,56.46
2023-07-02T10:51:44.918Z,56.79
2023-07-02T10:54:11.420Z,56.41
2023-07-02T10:56:37.461Z,56.79
2023-07-02T10:59:03.832Z,56.77
2023-07-02T11:04:24.951Z,56.43
2023-07-02T11:06:50.931Z,56.42
2023-07-02T11:09:18.482Z,56.72
2023-07-02T11:14:29.730Z,56.58
2023-07-02T11:16:57.051Z,56.66
2023-07-02T11:21:13.224Z,57.36
2023-07-02T11:25:41.840Z,56.83
2023-07-02T11:28:07.768Z,57.14
2023-07-02T11:33:56.723Z,57.26
2023-07-02T11:39:05.912Z,57.23
2023-07-02T11:46:16.021Z,57.54
2023-07-02T11:48:42.188Z,57.45
2023-07-02T11:51:08.400Z,57.59
2023-07-02T11:53:34.423Z,57.36
2023-07-02T11:56:00.371Z,57.55
2023-07-02T12:00:14.896Z,57.35
2023-07-02T12:02:42.066Z,57.03
2023-07-02T12:05:11.242Z,57.34
2023-07-02T12:07:38.736Z,57.09
2023-07-02T12:10:05.170Z,57.18
2023-07-02T12:12:31.001Z,57.17
2023-07-02T12:14:57.275Z,57.03
2023-07-02T12:17:23.176Z,57.20
2023-07-02T12:19:49.343Z,57.04
2023-07-02T12:22:18.234Z,56.80
2023-07-02T12:24:45.292Z,56.81
2023-07-02T12:27:11.421Z,57.02
2023-07-02T12:29:38.508Z,56.77
2023-07-02T12:32:05.564Z,56.83
2023-07-02T12:34:32.362Z,56.65
2023-07-02T12:36:58.297Z,56.42
2023-07-02T12:39:24.554Z,56.50
2023-07-02T12:41:50.433Z,56.76
2023-07-02T12:44:16.800Z,56.39
2023-07-02T12:46:43.654Z,56.52
2023-07-02T12:49:10.052Z,56.22
2023-07-02T12:51:35.942Z,56.37
2023-07-02T12:54:01.845Z,56.37
2023-07-02T12:56:27.789Z,55.97
2023-07-02T12:58:53.644Z,56.14
2023-07-02T13:03:32.372Z,56.22
2023-07-02T13:05:58.567Z,56.33
2023-07-02T13:08:24.488Z,56.25
2023-07-02T13:10:50.370Z,56.43
2023-07-02T13:13:23.257Z,56.29
2023-07-02T13:17:52.821Z,56.55
2023-07-02T13:22:22.578Z,56.14
2023-07-02T13:24:48.616Z,56.35
2023-07-02T13:27:18.193Z,56.48
2023-07-02T13:29:44.072Z,56.32
2023-07-02T13:34:17.144Z,56.30
2023-07-02T13:43:33.259Z,56.52
2023-07-02T13:45:59.291Z,56.22
2023-07-02T13:48:28.237Z,55.97
2023-07-02T13:50:55.582Z,55.98
2023-07-02T13:55:29.058Z,55.78
2023-07-02T14:01:53.573Z,55.26
2023-07-02T14:06:29.527Z,54.99
2023-07-02T14:11:06.553Z,55.14
2023-07-02T14:13:35.074Z,54.94
2023-07-02T14:16:02.647Z,54.88
2023-07-02T14:18:28.655Z,54.68
2023-07-02T14:20:54.881Z,54.50
2023-07-02T14:23:20.933Z,54.56
2023-07-02T14:25:47.285Z,54.81
2023-07-02T14:28:14.292Z,54.78
2023-07-02T14:30:40.165Z,54.82
2023-07-02T14:33:06.740Z,54.81
2023-07-02T14:35:32.739Z,54.47
2023-07-02T14:37:59.257Z,54.25
2023-07-02T14:40:25.671Z,54.80
2023-07-02T14:44:56.735Z,54.49
2023-07-02T14:49:24.021Z,54.67
2023-07-02T14:51:50.393Z,54.63
2023-07-02T14:54:16.275Z,54.78
2023-07-02T14:56:42.210Z,54.46
2023-07-02T14:59:09.420Z,54.83
2023-07-02T15:01:35.553Z,54.67
2023-07-02T15:04:02.051Z,54.49
2023-07-02T15:06:30.098Z,54.39
2023-07-02T15:10:50.570Z,54.30
2023-07-02T15:13:18.685Z,53.83
2023-07-02T15:15:46.821Z,53.30
2023-07-02T15:18:12.979Z,53.42
2023-07-02T15:26:56.453Z,52.89
2023-07-02T15:31:32.300Z,52.46
2023-07-02T15:33:59.374Z,52.33
2023-07-02T15:36:25.397Z,52.49
2023-07-02T15:38:51.366Z,52.39
2023-07-02T15:41:21.536Z,52.39
2023-07-02T15:51:56.293Z,52.38
2023-07-02T15:56:32.684Z,52.49
2023-07-02T15:59:00.084Z,52.61
2023-07-02T16:01:27.384Z,52.67
2023-07-02T16:06:58.462Z,52.81
2023-07-02T16:09:24.372Z,52.52
2023-07-02T16:11:51.157Z,52.65
2023-07-02T16:14:18.885Z,52.58
2023-07-02T16:16:47.872Z,52.83
2023-07-02T16:19:15.646Z,52.73
2023-07-02T16:27:47.608Z,52.88
2023-07-02T16:30:13.597Z,52.95
2023-07-02T16:32:41.576Z,52.79
2023-07-02T16:35:08.181Z,53.03
2023-07-02T16:37:34.751Z,53.05
2023-07-02T16:40:01.511Z,53.03
2023-07-02T16:42:27.368Z,52.90
2023-07-02T16:44:53.181Z,52.98
2023-07-02T16:47:19.106Z,52.92
2023-07-02T16:49:46.931Z,53.06
2023-07-02T16:52:13.616Z,52.85
2023-07-02T16:56:26.743Z,53.03
2023-07-02T16:58:52.750Z,53.11
2023-07-02T17:01:18.678Z,53.05
2023-07-02T17:07:54.339Z,53.02
2023-07-02T17:10:20.318Z,53.08
2023-07-02T17:12:46.585Z,52.97
2023-07-02T17:15:13.321Z,53.20
2023-07-02T17:17:39.262Z,53.27
2023-07-02T17:20:06.508Z,53.38
2023-07-02T17:22:33.306Z,53.03
2023-07-02T17:25:01.750Z,53.11
2023-07-02T17:33:11.906Z,52.65
2023-07-02T17:37:28.044Z,52.45
2023-07-02T17:42:03.472Z,52.47
2023-07-02T17:44:32.925Z,52.21
2023-07-02T17:55:29.682Z,51.74
2023-07-02T18:04:13.936Z,51.98
2023-07-02T18:09:15.782Z,51.96
2023-07-02T18:11:42.739Z,51.97
2023-07-02T18:14:09.818Z,51.94
2023-07-02T18:16:35.974Z,52.14
2023-07-02T18:19:01.871Z,52.03
2023-07-02T18:21:28.240Z,52.22
2023-07-02T18:23:54.173Z,52.15
2023-07-02T18:26:20.068Z,52.21
2023-07-02T18:28:45.942Z,52.16
2023-07-02T18:31:11.877Z,52.01
2023-07-02T18:33:38.734Z,52.37
2023-07-02T18:36:04.893Z,52.44
2023-07-02T18:38:30.990Z,52.40
2023-07-02T18:43:37.357Z,52.66
2023-07-02T18:46:05.265Z,52.40
2023-07-02T18:48:31.503Z,52.63
2023-07-02T18:52:51.461Z,52.58
2023-07-02T18:55:18.188Z,52.78
2023-07-02T18:57:44.422Z,52.96
2023-07-02T19:00:11.518Z,52.69
2023-07-02T19:07:22.969Z,53.04
2023-07-02T19:09:48.758Z,53.10
2023-07-02T19:12:14.758Z,52.83
2023-07-02T19:14:41.051Z,53.12
2023-07-02T19:17:09.756Z,53.19
2023-07-02T19:19:37.266Z,53.14
2023-07-02T19:22:05.365Z,53.23
2023-07-02T19:24:31.443Z,53.51
2023-07-02T19:26:57.254Z,53.30
2023-07-02T19:29:23.246Z,53.37
2023-07-02T19:31:49.587Z,53.36
2023-07-02T19:34:17.541Z,53.46
2023-07-02T19:36:45.220Z,53.66
2023-07-02T19:41:46.494Z,53.65
2023-07-02T19:44:13.642Z,53.57
2023-07-02T19:46:40.537Z,53.56
2023-07-02T19:49:06.520Z,53.68
2023-07-02T19:51:33.086Z,53.64
2023-07-02T19:54:00.517Z,53.65
2023-07-02T19:56:27.204Z,53.92
2023-07-02T19:58:53.500Z,53.75
2023-07-02T20:01:21.185Z,53.79
2023-07-02T20:07:08.890Z,53.66
2023-07-02T20:09:37.363Z,53.87
2023-07-02T20:12:03.713Z,54.04
2023-07-02T20:14:31.368Z,54.11
2023-07-02T20:16:57.257Z,54.04
2023-07-02T20:21:20.866Z,53.99
2023-07-02T20:23:47.048Z,54.29
2023-07-02T20:26:15.059Z,54.31
2023-07-02T20:33:54.117Z,53.86
2023-07-02T20:36:22.972Z,54.21
2023-07-02T20:38:49.807Z,54.25
2023-07-02T20:41:15.613Z,54.46
2023-07-02T20:43:43.064Z,54.45
2023-07-02T20:48:10.276Z,54.37
2023-07-02T20:54:23.092Z,54.38
2023-07-02T20:56:49.345Z,54.31
2023-07-02T20:59:15.795Z,54.50
2023-07-02T21:01:43.835Z,54.33
2023-07-02T21:04:10.041Z,54.60
2023-07-02T21:08:41.605Z,54.73
2023-07-02T21:11:16.656Z,54.61
2023-07-02T21:16:02.546Z,54.73
2023-07-02T21:18:28.950Z,54.77
2023-07-02T21:20:55.422Z,54.76
2023-07-02T21:23:21.448Z,54.81
2023-07-02T21:28:30.868Z,54.90
2023-07-02T21:30:56.798Z,54.64
2023-07-02T21:35:30.443Z,54.67
2023-07-02T21:37:56.318Z,55.05
2023-07-02T21:40:22.181Z,54.89
2023-07-02T21:44:47.757Z,54.94
2023-07-02T21:52:45.398Z,54.99
2023-07-02T21:55:11.756Z,55.22
2023-07-02T21:57:38.525Z,54.92
2023-07-02T22:00:11.401Z,55.02
2023-07-02T22:04:39.862Z,55.09
2023-07-02T22:07:06.506Z,55.00
2023-07-02T22:09:34.248Z,55.27
2023-07-02T22:12:00.169Z,55.17
2023-07-02T22:14:27.100Z,55.06
2023-07-02T22:21:06.696Z,55.17
2023-07-02T22:24:59.570Z,55.51
2023-07-02T22:29:36.389Z,55.07
2023-07-02T22:32:02.628Z,55.08
2023-07-02T22:34:28.616Z,55.50
2023-07-02T22:36:54.563Z,55.47
2023-07-02T22:42:29.423Z,55.59
2023-07-02T22:44:55.440Z,55.46
2023-07-02T22:57:32.215Z,55.41
2023-07-02T23:03:34.081Z,55.50
2023-07-02T23:08:08.081Z,55.92
2023-07-02T23:14:27.031Z,55.52
2023-07-02T23:16:52.935Z,55.67
2023-07-02T23:19:18.852Z,55.71
2023-07-02T23:29:45.276Z,55.81
2023-07-02T23:35:47.755Z,55.74
2023-07-02T23:43:35.904Z,55.72
2023-07-02T23:46:01.820Z,55.69
2023-07-02T23:48:28.105Z,55.88
2023-07-02T23:55:54.723Z,56.32
2023-07-02T23:58:20.678Z,56.15
